createdAt,value
2023-03-29T04:15:16.588Z,1011.235216
2023-03-29T04:20:15.754Z,1011.288843
2023-03-29T04:25:16.602Z,1011.408663
2023-03-29T04:30:16.441Z,1011.428898
2023-03-29T04:35:17.044Z,1011.307514
2023-03-29T04:40:16.248Z,1011.307174
2023-03-29T04:45:16.120Z,1011.469370
2023-03-29T04:50:15.569Z,1011.490296
2023-03-29T04:55:15.995Z,1011.610927
2023-03-29T05:00:16.926Z,1011.670091
2023-03-29T05:05:16.681Z,1011.630385
2023-03-29T05:10:16.464Z,1011.569710
2023-03-29T05:15:16.496Z,1011.650443
2023-03-29T05:20:15.897Z,1011.732112
2023-03-29T05:25:16.097Z,1011.651649
2023-03-29T05:30:15.893Z,1011.531788
2023-03-29T05:35:15.687Z,1011.449320
2023-03-29T05:40:16.635Z,1011.389238
2023-03-29T05:45:16.150Z,1011.268056
2023-03-29T05:50:16.131Z,1011.269155
2023-03-29T05:55:16.242Z,1011.189419
2023-03-29T06:00:16.480Z,1011.230082
2023-03-29T06:05:15.668Z,1011.331130
2023-03-29T06:10:16.290Z,1011.291737
2023-03-29T06:15:16.611Z,1011.271995
2023-03-29T06:20:17.252Z,1011.312994
2023-03-29T06:25:16.002Z,1011.293798
2023-03-29T06:30:17.216Z,1011.272960
2023-03-29T06:35:16.123Z,1011.354229
2023-03-29T06:40:16.273Z,1011.353441
2023-03-29T06:45:16.526Z,1011.354000
2023-03-29T06:50:16.577Z,1011.374184
2023-03-29T06:55:17.043Z,1011.351422
2023-03-29T07:00:15.606Z,1011.333508
2023-03-29T07:05:15.993Z,1011.236325
2023-03-29T07:10:16.299Z,1011.198403
2023-03-29T07:15:16.617Z,1011.197415
2023-03-29T07:20:16.089Z,1011.277823
2023-03-29T07:25:16.337Z,1011.197342
2023-03-29T07:30:15.986Z,1011.220240
2023-03-29T07:35:16.133Z,1011.223447
2023-03-29T07:40:16.900Z,1011.244387
2023-03-29T07:45:17.478Z,1011.281640
2023-03-29T07:50:16.966Z,1011.261695
2023-03-29T07:55:16.858Z,1011.223832
2023-03-29T08:00:16.081Z,1011.226450
2023-03-29T08:05:23.189Z,1011.189561
2023-03-29T08:10:20.517Z,1011.229847
2023-03-29T08:15:17.496Z,1011.310855
2023-03-29T08:20:16.816Z,1011.350471
2023-03-29T08:25:17.545Z,1011.371692
2023-03-29T08:30:17.037Z,1011.312428
2023-03-29T08:35:15.863Z,1011.312911
2023-03-29T08:40:15.694Z,1011.312919
2023-03-29T08:45:15.669Z,1011.273059
2023-03-29T08:50:16.191Z,1011.211639
2023-03-29T08:55:15.577Z,1011.252374
2023-03-29T09:00:17.510Z,1011.232125
2023-03-29T09:05:16.937Z,1011.191003
2023-03-29T09:10:17.004Z,1011.091226
2023-03-29T09:15:15.563Z,1011.011095
2023-03-29T09:20:16.898Z,1010.970982
2023-03-29T09:25:15.628Z,1010.991425
2023-03-29T09:30:16.672Z,1011.012387
2023-03-29T09:35:16.095Z,1010.932874
2023-03-29T09:40:16.740Z,1010.954013
2023-03-29T09:45:16.641Z,1010.874186
2023-03-29T09:50:29.577Z,1010.735002
2023-03-29T09:55:16.083Z,1010.694693
2023-03-29T10:00:15.839Z,1010.613636
2023-03-29T10:05:15.571Z,1010.532535
2023-03-29T10:10:15.774Z,1010.492215
2023-03-29T10:15:26.668Z,1010.492703
2023-03-29T10:20:15.798Z,1010.474296
2023-03-29T10:25:16.365Z,1010.475617
2023-03-29T10:30:16.118Z,1010.415216
2023-03-29T10:35:15.812Z,1010.395316
2023-03-29T10:40:16.847Z,1010.336911
2023-03-29T10:45:16.052Z,1010.317480
2023-03-29T10:50:15.892Z,1010.257641
2023-03-29T10:55:15.871Z,1010.338857
2023-03-29T11:00:15.920Z,1010.341823
2023-03-29T11:05:16.387Z,1010.343649
2023-03-29T11:10:15.686Z,1010.323831
2023-03-29T11:15:16.883Z,1010.263743
2023-03-29T11:20:16.227Z,1010.304313
2023-03-29T11:25:16.025Z,1010.203404
2023-03-29T11:30:15.640Z,1010.203425
2023-03-29T11:35:16.582Z,1010.223812
2023-03-29T11:40:17.197Z,1010.284690
2023-03-29T11:45:16.724Z,1010.323940
2023-03-29T11:50:16.114Z,1010.425030
2023-03-29T11:55:16.849Z,1010.465111
2023-03-29T12:00:16.821Z,1010.545566
2023-03-29T12:05:16.741Z,1010.605004
2023-03-29T12:10:17.187Z,1010.726538
2023-03-29T12:15:16.216Z,1010.846991
2023-03-29T12:20:18.165Z,1010.907471
2023-03-29T12:25:18.167Z,1010.929612
2023-03-29T12:30:15.950Z,1010.889623
2023-03-29T12:35:16.464Z,1010.831101
2023-03-29T12:40:16.165Z,1010.889728
2023-03-29T12:45:17.830Z,1010.990030
2023-03-29T12:50:15.956Z,1011.009694
2023-03-29T12:55:16.103Z,1011.030393
2023-03-29T13:00:17.984Z,1011.070565
2023-03-29T13:05:16.751Z,1011.070284
2023-03-29T13:10:16.276Z,1011.089793
2023-03-29T13:15:15.726Z,1011.088641
2023-03-29T13:20:15.767Z,1011.049774
2023-03-29T13:25:16.522Z,1011.091494
2023-03-29T13:30:16.416Z,1011.031373
2023-03-29T13:35:15.800Z,1011.033985
2023-03-29T13:40:15.667Z,1011.077855
2023-03-29T13:45:16.846Z,1011.138015
2023-03-29T13:50:16.413Z,1011.319009
2023-03-29T13:55:16.552Z,1011.418053
2023-03-29T14:00:16.763Z,1011.478162
2023-03-29T14:05:17.301Z,1011.578264
2023-03-29T14:10:21.451Z,1011.638158
2023-03-29T14:15:15.714Z,1011.679245
2023-03-29T14:20:16.743Z,1011.678753
2023-03-29T14:25:16.044Z,1011.658058
2023-03-29T14:30:16.557Z,1011.676996
2023-03-29T14:35:21.894Z,1011.757651
2023-03-29T14:40:16.076Z,1011.918218
2023-03-29T14:45:16.191Z,1011.957283
2023-03-29T14:50:16.228Z,1012.056999
2023-03-29T14:55:16.026Z,1012.036584
2023-03-29T15:00:17.033Z,1012.014161
2023-03-29T15:05:16.771Z,1012.151338
2023-03-29T15:10:17.163Z,1012.130768
2023-03-29T15:15:17.195Z,1012.111643
2023-03-29T15:20:16.366Z,1012.110363
2023-03-29T15:25:16.508Z,1012.191425
2023-03-29T15:30:17.428Z,1012.150112
2023-03-29T15:35:15.712Z,1012.128299
2023-03-29T15:40:16.399Z,1012.126642
2023-03-29T15:45:16.246Z,1012.163339
2023-03-29T15:50:16.005Z,1012.202689
2023-03-29T15:55:16.336Z,1012.221160
2023-03-29T16:00:16.186Z,1012.160805
2023-03-29T16:05:16.499Z,1012.096593
2023-03-29T16:10:21.834Z,1012.097906
2023-03-29T16:15:17.997Z,1012.076358
2023-03-29T16:20:16.934Z,1012.001410
2023-03-29T16:25:15.832Z,1011.998294
2023-03-29T16:30:16.825Z,1011.976905
2023-03-29T16:35:16.211Z,1011.978652
2023-03-29T16:40:15.901Z,1011.974223
2023-03-29T16:45:15.747Z,1011.998659
2023-03-29T16:50:16.104Z,1012.061138
2023-03-29T16:55:15.820Z,1012.080916
2023-03-29T17:00:16.232Z,1012.016738
2023-03-29T17:05:16.464Z,1011.915359
2023-03-29T17:10:16.882Z,1011.911733
2023-03-29T17:15:15.654Z,1011.914193
2023-03-29T17:20:16.556Z,1011.934960
2023-03-29T17:25:16.302Z,1011.873733
2023-03-29T17:30:16.896Z,1011.813802
2023-03-29T17:35:18.349Z,1011.812884
2023-03-29T17:40:16.390Z,1011.851492
2023-03-29T17:45:15.849Z,1011.826991
2023-03-29T17:50:16.480Z,1011.728784
2023-03-29T17:55:16.116Z,1011.749588
2023-03-29T18:00:16.013Z,1011.809479
2023-03-29T18:05:16.548Z,1011.888455
2023-03-29T18:10:15.760Z,1011.829659
2023-03-29T18:15:17.738Z,1011.809170
2023-03-29T18:20:16.629Z,1011.766714
2023-03-29T18:25:15.968Z,1011.708461
2023-03-29T18:30:16.334Z,1011.707763
2023-03-29T18:35:17.685Z,1011.766725
2023-03-29T18:40:16.507Z,1011.707969
2023-03-29T18:45:16.743Z,1011.746243
2023-03-29T18:50:16.441Z,1011.746271
2023-03-29T18:55:16.157Z,1011.787921
2023-03-29T19:00:16.049Z,1011.845712
2023-03-29T19:05:15.970Z,1011.786350
2023-03-29T19:10:16.417Z,1011.699474
2023-03-29T19:15:15.716Z,1011.700167
2023-03-29T19:20:17.102Z,1011.621700
2023-03-29T19:25:16.673Z,1011.659613
2023-03-29T19:30:18.295Z,1011.564941
2023-03-29T19:35:16.009Z,1011.544075
2023-03-29T19:40:16.320Z,1011.564042
2023-03-29T19:45:15.941Z,1011.625676
2023-03-29T19:50:17.596Z,1011.626127
2023-03-29T19:55:16.554Z,1011.604324
2023-03-29T20:00:16.409Z,1011.603234
2023-03-29T20:05:16.662Z,1011.543481
2023-03-29T20:10:15.992Z,1011.503229
2023-03-29T20:15:15.558Z,1011.502881
2023-03-29T20:20:15.990Z,1011.484398
2023-03-29T20:25:16.596Z,1011.523814
2023-03-29T20:30:16.149Z,1011.503103
2023-03-29T20:35:16.970Z,1011.500228
2023-03-29T20:40:16.947Z,1011.500837
2023-03-29T20:45:15.919Z,1011.481399
2023-03-29T20:50:16.823Z,1011.480468
2023-03-29T20:55:16.006Z,1011.461065
2023-03-29T21:00:15.877Z,1011.380349
2023-03-29T21:05:21.334Z,1011.299915
2023-03-29T21:10:15.795Z,1011.277112
2023-03-29T21:15:16.272Z,1011.215225
2023-03-29T21:20:21.350Z,1011.154173
2023-03-29T21:25:15.627Z,1011.116008
2023-03-29T21:30:17.375Z,1011.055502
2023-03-29T21:35:17.406Z,1010.955414
2023-03-29T21:40:15.984Z,1010.994522
2023-03-29T21:45:16.663Z,1010.848352
2023-03-29T21:50:15.613Z,1010.768672
2023-03-29T21:55:15.962Z,1010.706818
2023-03-29T22:00:15.892Z,1010.589407
2023-03-29T22:05:15.875Z,1010.567589
2023-03-29T22:10:15.700Z,1010.543193
2023-03-29T22:15:16.185Z,1010.484358
2023-03-29T22:20:16.317Z,1010.402638
2023-03-29T22:25:16.222Z,1010.337811
2023-03-29T22:30:16.468Z,1010.258437
2023-03-29T22:35:16.497Z,1010.179831
2023-03-29T22:40:16.837Z,1010.181034
2023-03-29T22:45:16.292Z,1010.198786
2023-03-29T22:50:15.646Z,1010.099989
2023-03-29T22:55:15.734Z,1010.057967
2023-03-29T23:00:15.994Z,1010.097168
2023-03-29T23:05:16.250Z,1009.977654
2023-03-29T23:10:15.678Z,1009.873167
2023-03-29T23:15:15.650Z,1009.876275
2023-03-29T23:20:17.847Z,1009.876880
2023-03-29T23:25:16.602Z,1009.734603
2023-03-29T23:30:17.019Z,1009.675118
2023-03-29T23:35:16.635Z,1009.633593
2023-03-29T23:40:17.169Z,1009.636032
2023-03-29T23:45:15.742Z,1009.615654
2023-03-29T23:50:16.872Z,1009.537457
2023-03-29T23:55:15.817Z,1009.495791
